Latest Weather Observations for Gunnedah Airport

IDN60801

Issued at 3:03 pm EST Friday 31 July 2015 (issued every 30 minutes, with the page automatically refreshed every 10 minutes)

About weather observations | Map of weather stations | Latest weather observations for NSW | Other Formats
Station Details ID: 055202 Name: GUNNEDAH AIRPORT AWS Lat: -30.95 Lon: 150.25 Height: 262.57 m
Data from the previous 72 hours. | See also: Recent months at Gunnedah Airport
Date/Time
EST
Temp
°C
App
Temp
°C
Dew
Point
Rel
Hum
%
Delta-T
°C
Wind Press
QNH
hPa
Press
MSL
hPa
Rain
since 9 am
mm
Dir
 
Spd
km/h
Gust
km/h
Spd
kts
Gust
kts
31/03:00pm 18.7 15.5 5.2 41 6.6 NW 11 17 6 9 1021.0 1021.3 0.0
31/02:30pm 18.8 15.6 4.9 40 6.8 NW 11 17 6 9 1021.4 1021.8 0.0
31/02:00pm 18.4 14.4 4.9 41 6.6 NW 15 22 8 12 1021.4 1021.8 0.0
31/01:30pm 18.1 15.5 6.3 46 5.9 WNW 9 13 5 7 1021.6 1022.0 0.0
31/01:00pm 17.3 14.5 7.1 51 5.1 NW 11 15 6 8 1022.0 1022.4 0.0
31/12:30pm 17.0 14.5 6.5 50 5.2 NW 9 15 5 8 1022.6 1022.9 0.0
31/12:00pm 16.2 13.6 6.3 52 4.9 NW 9 13 5 7 1022.9 1023.2 0.0
31/11:30am 15.5 12.2 6.5 55 4.4 NNW 13 19 7 10 1023.5 1023.8 0.0
31/11:00am 14.8 11.4 6.1 56 4.2 NW 13 20 7 11 1023.7 1024.0 0.0
31/10:30am 14.3 11.7 5.9 57 4.1 NNW 9 15 5 8 1023.9 1024.2 0.0
31/10:00am 13.4 11.9 6.7 64 3.3 ENE 4 9 2 5 1024.1 1024.4 0.0
31/09:30am 11.4 10.1 5.9 69 2.6 E 2 9 1 5 1024.1 1024.4 0.0
31/09:00am 10.5 9.8 6.8 78 1.8 CALM 0 0 0 0 1023.9 1024.2 0.0
31/08:30am 6.5 5.5 5.5 93 0.4 CALM 0 0 0 0 1023.6 1023.9 0.0
31/08:00am 3.5 1.9 2.6 94 0.4 CALM 0 0 0 0 1023.4 1023.7 0.0
31/07:30am 0.4 -1.7 -0.6 93 0.4 CALM 0 0 0 0 1023.3 1023.6 0.0
31/07:00am -0.6 -2.8 -1.7 92 0.4 CALM 0 0 0 0 1023.0 1023.3 0.0
31/06:30am -0.2 -2.4 -1.3 92 0.4 CALM 0 0 0 0 1022.8 1023.1 0.0
31/06:00am 1.5 -1.5 0.6 94 0.3 SE 6 9 3 5 1022.5 1022.8 0.0
31/05:30am 0.6 -1.8 -0.4 93 0.4 ESE 2 7 1 4 1022.3 1022.6 0.0
31/05:00am 0.7 -2.5 -0.3 93 0.4 E 6 9 3 5 1021.9 1022.3 0.0
31/04:30am 0.2 -2.3 -1.1 91 0.5 S 2 7 1 4 1021.9 1022.3 0.0
31/04:00am 1.8 -1.4 0.8 93 0.4 S 7 11 4 6 1022.1 1022.5 0.0
31/03:30am 1.6 -1.4 0.6 93 0.4 SSE 6 7 3 4 1022.1 1022.5 0.0
31/03:00am 1.7 -1.6 0.4 91 0.5 S 7 9 4 5 1022.3 1022.6 0.0
31/02:30am 2.7 -0.2 1.5 92 0.5 E 6 6 3 3 1022.0 1022.4 0.0
31/02:00am 2.5 -0.1 1.2 91 0.5 SE 4 7 2 4 1022.6 1022.9 0.0
31/01:30am 3.5 0.5 2.3 92 0.5 S 7 7 4 4 1022.6 1022.9 0.0
31/01:00am 4.6 2.0 3.4 92 0.5 S 6 9 3 5 1023.2 1023.5 0.0
31/12:30am 5.0 3.6 3.5 90 0.6 CALM 0 6 0 3 1023.4 1023.7 0.0
31/12:00am 5.2 2.6 3.4 88 0.8 S 6 7 3 4 1023.4 1023.7 0.0
 
Date/Time
EST
Temp
°C
App
Temp
°C
Dew
Point
Rel
Hum
%
Delta-T
°C
Wind Press
QNH
hPa
Press
MSL
hPa
Rain
since 9 am
mm
Dir
 
Spd
km/h
Gust
km/h
Spd
kts
Gust
kts
30/11:30pm 5.6 3.0 4.2 91 0.6 S 7 7 4 4 1023.2 1023.5 0.0
30/11:00pm 4.7 2.0 3.5 92 0.5 S 7 7 4 4 1023.4 1023.7 0.0
30/10:30pm 3.1 0.2 1.2 87 0.7 NE 6 11 3 6 1023.5 1023.8 0.0
30/10:00pm 4.1 2.4 1.8 85 0.9 CALM 0 0 0 0 1023.9 1024.2 0.0
30/09:30pm 5.0 3.5 3.0 87 0.8 CALM 0 0 0 0 1024.2 1024.5 0.0
30/09:00pm 5.9 4.5 3.7 86 0.9 CALM 0 0 0 0 1023.7 1024.0 0.0
30/08:30pm 7.3 6.1 4.4 82 1.3 CALM 0 0 0 0 1023.5 1023.8 0.0
30/08:00pm 7.4 6.2 4.5 82 1.3 CALM 0 0 0 0 1023.4 1023.7 0.0
30/07:30pm 6.7 4.1 3.0 77 1.6 NNW 6 9 3 5 1023.6 1023.9 0.0
30/07:00pm 7.8 5.1 3.5 74 1.9 N 7 11 4 6 1023.4 1023.7 0.0
30/06:30pm 11.3 8.0 4.7 64 3.0 NNW 11 15 6 8 1023.3 1023.6 0.0
30/06:00pm 12.0 8.5 5.4 64 3.1 NNW 13 17 7 9 1023.0 1023.3 0.0
30/05:30pm 13.3 9.4 5.2 58 3.8 NNW 15 20 8 11 1023.1 1023.4 0.0
30/05:00pm 14.5 11.0 5.3 54 4.4 NNW 13 20 7 11 1023.2 1023.5 0.0
30/04:30pm 15.7 11.9 5.6 51 4.9 NNW 15 20 8 11 1023.5 1023.8 0.0
30/04:00pm 16.5 12.4 6.1 50 5.1 NNW 17 24 9 13 1023.6 1023.9 0.0
30/03:30pm 16.9 12.0 4.9 45 5.8 NNW 20 28 11 15 1023.7 1024.0 0.0
30/03:00pm 17.3 12.8 5.9 47 5.6 NNW 19 28 10 15 1024.4 1024.8 0.0
30/02:30pm 16.5 11.6 4.9 46 5.6 NNW 20 30 11 16 1024.5 1024.9 0.0
30/02:00pm 17.2 12.4 5.5 46 5.7 NW 20 30 11 16 1024.5 1024.9 0.0
30/01:30pm 16.6 12.1 6.1 50 5.2 NW 19 26 10 14 1025.2 1025.6 0.0
30/01:00pm 16.1 11.4 5.1 48 5.3 NW 19 28 10 15 1025.7 1026.1 0.0
30/12:30pm 15.7 12.2 5.6 51 4.9 NNW 13 19 7 10 1026.1 1026.5 0.0
30/12:00pm 14.8 11.5 4.8 51 4.7 NW 11 17 6 9 1026.9 1027.2 0.0
30/11:30am 14.0 12.1 4.9 54 4.3 NNE 4 9 2 5 1027.7 1028.1 0.0
30/11:00am 13.0 11.2 5.2 59 3.7 NNE 4 11 2 6 1028.4 1028.8 0.0
30/10:30am 12.0 11.0 5.6 65 3.0 CALM 0 0 0 0 1028.8 1029.2 0.0
30/10:00am 10.4 9.4 5.4 71 2.3 CALM 0 2 0 1 1028.8 1029.2 0.0
30/09:30am 9.0 7.8 4.6 74 2.0 CALM 0 0 0 0 1028.9 1029.3 0.0
30/09:00am 8.0 6.8 4.4 78 1.6 CALM 0 0 0 0 1029.1 1029.5 0.0
30/08:30am 5.6 4.1 3.1 84 1.1 CALM 0 0 0 0 1029.0 1029.4 0.0
30/08:00am 2.0 0.1 0.8 92 0.5 CALM 0 0 0 0 1028.9 1029.3 0.0
30/07:30am -0.6 -2.8 -1.7 92 0.4 CALM 0 0 0 0 1028.7 1029.1 0.0
30/07:00am -1.0 -3.3 -2.1 92 0.3 CALM 0 0 0 0 1028.3 1028.7 0.0
30/06:30am -1.4 -3.8 -2.8 90 0.4 CALM 0 0 0 0 1028.2 1028.6 0.0
30/06:00am -0.9 -3.2 -2.3 90 0.4 CALM 0 0 0 0 1027.8 1028.2 0.0
30/05:30am -1.0 -4.7 -2.6 89 0.5 SSE 7 9 4 5 1027.6 1028.0 0.0
30/05:00am -0.3 -3.7 -1.7 90 0.5 SE 6 9 3 5 1027.4 1027.7 0.0
30/04:30am -0.1 -3.6 -1.5 90 0.5 E 7 9 4 5 1027.3 1027.6 0.0
30/04:00am 0.9 -2.9 -0.4 91 0.5 S 9 11 5 6 1027.6 1028.0 0.0
30/03:30am 1.1 -0.9 -0.4 90 0.5 CALM 0 0 0 0 1027.7 1028.1 0.0
30/03:00am 1.1 -1.0 -0.5 89 0.6 CALM 0 0 0 0 1028.1 1028.5 0.0
30/02:30am 2.0 0.1 0.7 91 0.5 CALM 0 0 0 0 1028.4 1028.8 0.0
30/02:00am 1.6 -0.4 0.1 90 0.6 CALM 0 0 0 0 1028.5 1028.9 0.0
30/01:30am 1.6 -0.4 0.1 90 0.6 CALM 0 0 0 0 1028.7 1029.1 0.0
30/01:00am 2.1 0.1 0.0 86 0.8 CALM 0 0 0 0 1029.2 1029.6 0.0
30/12:30am 2.7 0.9 1.4 91 0.5 CALM 0 0 0 0 1029.5 1029.9 0.0
30/12:00am 1.6 -0.4 -0.3 87 0.7 CALM 0 0 0 0 1029.4 1029.8 0.0
 
Date/Time
EST
Temp
°C
App
Temp
°C
Dew
Point
Rel
Hum
%
Delta-T
°C
Wind Press
QNH
hPa
Press
MSL
hPa
Rain
since 9 am
mm
Dir
 
Spd
km/h
Gust
km/h
Spd
kts
Gust
kts
29/11:30pm 1.6 -0.4 -0.3 87 0.7 CALM 0 0 0 0 1029.8 1030.2 0.0
29/11:00pm 1.5 -0.9 -0.4 87 0.7 WSW 2 9 1 5 1030.5 1030.8 0.0
29/10:30pm 1.4 -0.7 -0.5 87 0.7 CALM 0 0 0 0 1030.1 1030.5 0.0
29/10:00pm 2.9 0.7 1.0 87 0.7 SW 2 6 1 3 1030.4 1030.7 0.0
29/09:30pm 2.2 -0.9 -0.1 85 0.9 SW 6 7 3 4 1030.1 1030.5 0.0
29/09:00pm 2.6 -0.7 0.0 83 1.0 SE 7 9 4 5 1029.7 1030.1 0.0
29/08:30pm 2.9 -0.4 0.1 82 1.1 NE 7 7 4 4 1029.5 1029.9 0.0
29/08:00pm 3.4 1.5 0.3 80 1.2 CALM 0 6 0 3 1030.3 1030.6 0.0
29/07:30pm 5.6 3.8 1.2 73 1.8 CALM 0 0 0 0 1030.1 1030.5 0.0
29/07:00pm 8.1 4.2 1.0 61 2.9 S 11 13 6 7 1030.1 1030.5 0.0
29/06:30pm 7.9 4.6 2.2 67 2.4 S 9 11 5 6 1029.8 1030.2 0.0
29/06:00pm 9.8 6.7 1.2 55 3.6 W 7 9 4 5 1029.1 1029.5 0.0
29/05:30pm 11.9 8.8 1.5 49 4.5 W 7 7 4 4 1028.8 1029.2 0.0
29/05:00pm 14.0 11.0 2.0 44 5.3 WNW 7 9 4 5 1028.5 1028.9 0.0
29/04:30pm 15.3 11.8 1.4 39 6.2 NW 9 11 5 6 1028.5 1028.9 0.0
29/04:00pm 16.7 13.6 0.4 33 7.1 WNW 6 11 3 6 1029.0 1029.4 0.0
29/03:30pm 16.7 13.1 -1.9 28 7.8 SW 7 11 4 6 1029.1 1029.5 0.0
29/03:00pm 16.8 13.7 0.0 32 7.3 SSW 6 11 3 6 1029.2 1029.6 0.0
29/02:30pm 16.9 14.1 1.8 36 6.8 NW 6 11 3 6 1029.3 1029.7 0.0
29/02:00pm 16.3 13.2 0.0 33 7.0 S 6 11 3 6 1029.6 1030.0 0.0
29/01:30pm 15.8 12.3 1.2 37 6.5 SSE 9 13 5 7 1029.8 1030.2 0.0
29/01:00pm 16.5 14.5 2.2 38 6.5 NE 2 9 1 5 1030.5 1030.8 0.0
29/12:30pm 14.7 11.5 2.9 45 5.4 SE 9 17 5 9 1031.3 1031.7 0.0
29/12:00pm 14.2 10.6 3.1 47 5.0 ESE 11 17 6 9 1032.0 1032.4 0.0
29/11:30am 13.8 9.5 3.3 49 4.8 ESE 15 20 8 11 1032.6 1033.0 0.0
29/11:00am 12.8 9.0 3.7 54 4.1 ESE 13 19 7 10 1033.2 1033.6 0.0
29/10:30am 11.1 6.4 3.4 59 3.4 SE 17 20 9 11 1033.6 1034.0 0.0
29/10:00am 9.9 5.6 3.0 62 3.0 SE 15 19 8 10 1034.0 1034.5 0.0
29/09:30am 8.4 4.7 2.4 66 2.6 SE 11 15 6 8 1033.9 1034.3 0.0
29/09:00am 6.4 2.7 2.1 74 1.8 SE 11 17 6 9 1034.3 1034.7 0.2
29/08:30am 5.1 1.2 1.4 77 1.5 ESE 11 13 6 7 1034.3 1034.7 -
29/08:00am 3.4 -0.2 0.8 83 1.0 SE 9 11 5 6 1033.9 1034.3 -
29/07:30am 0.9 -3.7 -1.3 85 0.8 SE 13 15 7 8 1033.5 1033.9 -
29/07:00am -1.4 -5.5 -3.3 87 0.6 S 9 11 5 6 1033.3 1033.7 -
29/06:30am -0.8 -5.3 -3.0 85 0.7 SSE 11 15 6 8 1032.9 1033.3 -
29/06:00am 0.6 -4.1 -1.6 85 0.8 SE 13 15 7 8 1032.5 1032.9 -
29/05:30am -0.6 -4.7 -3.1 83 0.8 SE 9 11 5 6 1032.5 1032.9 -
29/05:00am -0.7 -4.4 -2.9 85 0.7 ESE 7 9 4 5 1032.3 1032.7 -
29/04:30am 0.3 -3.7 -2.2 83 0.9 SE 9 13 5 7 1032.0 1032.4 -
29/04:00am 1.4 -2.1 -1.5 81 1.0 ESE 7 11 4 6 1032.1 1032.5 -
29/03:30am 0.5 -4.2 -2.0 83 0.9 ESE 13 15 7 8 1031.9 1032.3 -
29/03:00am -0.7 -5.7 -4.0 78 1.0 SE 13 15 7 8 1032.3 1032.7 0.0
29/02:30am 0.1 -3.3 -2.3 84 0.8 SSE 6 9 3 5 1032.5 1032.9 -
29/02:00am 1.3 -4.1 -1.3 83 0.9 SE 17 19 9 10 1032.2 1032.6 -
29/01:30am 0.5 -3.9 -2.2 82 1.0 ESE 11 13 6 7 1032.3 1032.7 -
29/01:00am 1.0 -2.3 -1.6 83 0.9 SE 6 7 3 4 1032.3 1032.7 -
29/12:30am 0.4 -3.0 -1.7 86 0.8 ESE 6 7 3 4 1032.2 1032.6 -
29/12:00am 0.7 -2.8 -1.2 87 0.7 SSE 7 11 4 6 1032.2 1032.6 -
 
Date/Time
EST
Temp
°C
App
Temp
°C
Dew
Point
Rel
Hum
%
Delta-T
°C
Wind Press
QNH
hPa
Press
MSL
hPa
Rain
since 9 am
mm
Dir
 
Spd
km/h
Gust
km/h
Spd
kts
Gust
kts
28/11:30pm -0.4 -4.0 -2.0 89 0.5 ENE 7 7 4 4 1032.0 1032.4 -
28/11:00pm -0.4 -4.4 -2.4 86 0.7 ENE 9 9 5 5 1032.1 1032.5 -
28/10:30pm 1.5 -2.0 -1.4 81 1.0 SSE 7 9 4 5 1032.4 1032.8 -
28/10:00pm 2.5 -1.2 -0.1 83 1.0 SSE 9 11 5 6 1032.2 1032.6 -
28/09:30pm 1.9 0.0 0.3 89 0.6 CALM 0 0 0 0 1032.2 1032.6 -
28/09:00pm 0.1 -2.3 -2.9 80 1.0 CALM 0 0 0 0 1032.4 1032.8 0.0
28/08:30pm 1.8 -0.3 -0.8 83 0.9 CALM 0 0 0 0 1032.1 1032.5 -
28/08:00pm 2.7 -0.1 -0.2 81 1.1 S 4 7 2 4 1032.0 1032.4 -
28/07:30pm 3.8 0.7 0.0 76 1.5 SSW 6 6 3 3 1031.8 1032.2 -
28/07:00pm 4.7 1.6 -0.1 71 1.8 SSW 6 9 3 5 1031.7 1032.1 -
28/06:30pm 5.2 1.8 -0.4 67 2.1 SSW 7 9 4 5 1031.5 1031.9 -
28/06:00pm 6.3 2.6 -0.2 63 2.5 SSW 9 11 5 6 1031.5 1031.9 -
28/05:30pm 9.1 5.4 -0.2 52 3.7 SSW 9 11 5 6 1031.2 1031.6 -
28/05:00pm 11.0 7.2 -0.5 45 4.6 SSW 9 13 5 7 1031.0 1031.4 -
28/04:30pm 12.4 8.3 -0.1 42 5.2 S 11 13 6 7 1030.6 1030.9 -
28/04:00pm 13.3 9.4 -1.8 35 6.1 SE 9 11 5 6 1030.5 1030.8 -
28/03:30pm 13.6 9.3 -1.6 35 6.2 S 11 17 6 9 1030.6 1030.9 -

Other Formats:

Comma delimited format used in spreadsheet applications
http://www.bom.gov.au/fwo/IDN60801/IDN60801.95740.axf

JavaScript Object Notation format (JSON) in row-major order
http://www.bom.gov.au/fwo/IDN60801/IDN60801.95740.json